sensor_id;sensor_type;location;lat;lon;timestamp;temperature;humidity
53880;DHT22;39791;53.184;5.486;2022-09-12T00:02:24;17.00;99.90
53880;DHT22;39791;53.184;5.486;2022-09-12T00:04:50;17.50;99.90
53880;DHT22;39791;53.184;5.486;2022-09-12T00:07:16;17.20;99.90
53880;DHT22;39791;53.184;5.486;2022-09-12T00:09:42;17.20;99.90
53880;DHT22;39791;53.184;5.486;2022-09-12T00:12:08;16.90;99.90
53880;DHT22;39791;53.184;5.486;2022-09-12T00:14:34;17.10;99.90
53880;DHT22;39791;53.184;5.486;2022-09-12T00:17:00;17.30;99.90
53880;DHT22;39791;53.184;5.486;2022-09-12T00:19:26;16.70;99.90
53880;DHT22;39791;53.184;5.486;2022-09-12T00:21:52;17.40;99.90
53880;DHT22;39791;53.184;5.486;2022-09-12T00:24:18;16.70;99.90
53880;DHT22;39791;53.184;5.486;2022-09-12T00:26:43;16.60;99.90
53880;DHT22;39791;53.184;5.486;2022-09-12T00:29:15;16.90;99.90
53880;DHT22;39791;53.184;5.486;2022-09-12T00:31:41;17.30;99.90
53880;DHT22;39791;53.184;5.486;2022-09-12T00:34:07;17.30;99.90
53880;DHT22;39791;53.184;5.486;2022-09-12T00:36:33;17.10;99.90
53880;DHT22;39791;53.184;5.486;2022-09-12T00:38:58;17.10;99.90
53880;DHT22;39791;53.184;5.486;2022-09-12T00:41:28;17.00;99.90
53880;DHT22;39791;53.184;5.486;2022-09-12T00:43:59;16.80;99.90
53880;DHT22;39791;53.184;5.486;2022-09-12T00:49:11;16.50;99.90
53880;DHT22;39791;53.184;5.486;2022-09-12T00:51:40;17.10;99.90
53880;DHT22;39791;53.184;5.486;2022-09-12T00:54:10;16.60;99.90
53880;DHT22;39791;53.184;5.486;2022-09-12T00:56:38;16.50;99.90
53880;DHT22;39791;53.184;5.486;2022-09-12T00:59:14;17.10;99.90
53880;DHT22;39791;53.184;5.486;2022-09-12T01:01:42;16.90;99.90
53880;DHT22;39791;53.184;5.486;2022-09-12T01:04:10;16.40;99.90
53880;DHT22;39791;53.184;5.486;2022-09-12T01:06:40;16.40;99.90
53880;DHT22;39791;53.184;5.486;2022-09-12T01:09:06;16.40;99.90
53880;DHT22;39791;53.184;5.486;2022-09-12T01:11:36;16.40;99.90
53880;DHT22;39791;53.184;5.486;2022-09-12T01:14:03;16.90;99.90
53880;DHT22;39791;53.184;5.486;2022-09-12T01:16:29;16.90;99.90
53880;DHT22;39791;53.184;5.486;2022-09-12T01:25:09;16.40;99.90
53880;DHT22;39791;53.184;5.486;2022-09-12T01:27:47;16.60;99.90
53880;DHT22;39791;53.184;5.486;2022-09-12T01:36:10;16.30;99.90
53880;DHT22;39791;53.184;5.486;2022-09-12T01:38:45;16.80;99.90
53880;DHT22;39791;53.184;5.486;2022-09-12T01:43:51;16.20;99.90
53880;DHT22;39791;53.184;5.486;2022-09-12T01:46:30;16.60;99.90
53880;DHT22;39791;53.184;5.486;2022-09-12T01:51:41;16.20;99.90
53880;DHT22;39791;53.184;5.486;2022-09-12T01:54:16;16.30;99.90
53880;DHT22;39791;53.184;5.486;2022-09-12T01:56:45;16.80;99.90
53880;DHT22;39791;53.184;5.486;2022-09-12T01:59:17;16.30;99.90
53880;DHT22;39791;53.184;5.486;2022-09-12T02:02:01;16.40;99.90
53880;DHT22;39791;53.184;5.486;2022-09-12T02:04:55;16.20;99.90
53880;DHT22;39791;53.184;5.486;2022-09-12T02:07:36;17.00;99.90
53880;DHT22;39791;53.184;5.486;2022-09-12T02:10:22;16.90;99.90
53880;DHT22;39791;53.184;5.486;2022-09-12T02:12:56;16.20;99.90
53880;DHT22;39791;53.184;5.486;2022-09-12T02:15:27;16.20;99.90
53880;DHT22;39791;53.184;5.486;2022-09-12T02:17:55;16.80;99.90
53880;DHT22;39791;53.184;5.486;2022-09-12T02:20:25;17.00;99.90
53880;DHT22;39791;53.184;5.486;2022-09-12T02:22:53;17.00;99.90
53880;DHT22;39791;53.184;5.486;2022-09-12T02:25:21;16.50;99.90
53880;DHT22;39791;53.184;5.486;2022-09-12T02:27:51;17.00;99.90
53880;DHT22;39791;53.184;5.486;2022-09-12T02:30:19;16.30;99.90
53880;DHT22;39791;53.184;5.486;2022-09-12T02:33:29;17.00;99.90
53880;DHT22;39791;53.184;5.486;2022-09-12T02:35:52;16.30;99.90
53880;DHT22;39791;53.184;5.486;2022-09-12T02:38:27;16.30;99.90
53880;DHT22;39791;53.184;5.486;2022-09-12T02:40:55;16.50;99.90
53880;DHT22;39791;53.184;5.486;2022-09-12T02:43:21;17.10;99.90
53880;DHT22;39791;53.184;5.486;2022-09-12T02:45:47;16.30;99.90
53880;DHT22;39791;53.184;5.486;2022-09-12T02:48:18;17.00;99.90
53880;DHT22;39791;53.184;5.486;2022-09-12T02:50:45;17.20;99.90
53880;DHT22;39791;53.184;5.486;2022-09-12T02:53:11;17.30;99.90
53880;DHT22;39791;53.184;5.486;2022-09-12T02:55:39;16.60;99.90
53880;DHT22;39791;53.184;5.486;2022-09-12T02:58:08;16.90;99.90
53880;DHT22;39791;53.184;5.486;2022-09-12T03:03:55;16.60;99.90
53880;DHT22;39791;53.184;5.486;2022-09-12T03:09:40;17.20;99.90
53880;DHT22;39791;53.184;5.486;2022-09-12T03:12:35;17.50;99.90
53880;DHT22;39791;53.184;5.486;2022-09-12T03:20:54;17.60;99.90
53880;DHT22;39791;53.184;5.486;2022-09-12T03:23:42;17.60;99.90
53880;DHT22;39791;53.184;5.486;2022-09-12T03:26:14;17.60;99.90
53880;DHT22;39791;53.184;5.486;2022-09-12T03:28:41;17.50;99.90
53880;DHT22;39791;53.184;5.486;2022-09-12T03:31:15;16.90;99.90
53880;DHT22;39791;53.184;5.486;2022-09-12T03:33:42;17.30;99.90
53880;DHT22;39791;53.184;5.486;2022-09-12T03:36:28;17.00;99.90
53880;DHT22;39791;53.184;5.486;2022-09-12T03:38:54;17.10;99.90
53880;DHT22;39791;53.184;5.486;2022-09-12T03:41:20;17.90;99.90
53880;DHT22;39791;53.184;5.486;2022-09-12T03:43:46;17.10;99.90
53880;DHT22;39791;53.184;5.486;2022-09-12T03:46:12;17.90;99.90
53880;DHT22;39791;53.184;5.486;2022-09-12T03:48:39;17.70;99.90
53880;DHT22;39791;53.184;5.486;2022-09-12T03:51:07;17.40;99.90
53880;DHT22;39791;53.184;5.486;2022-09-12T03:53:33;17.50;99.90
53880;DHT22;39791;53.184;5.486;2022-09-12T03:55:59;18.00;99.90
53880;DHT22;39791;53.184;5.486;2022-09-12T03:58:29;17.90;99.90
53880;DHT22;39791;53.184;5.486;2022-09-12T04:00:55;17.80;99.90
53880;DHT22;39791;53.184;5.486;2022-09-12T04:03:21;18.20;99.90
53880;DHT22;39791;53.184;5.486;2022-09-12T04:05:47;17.90;99.90
53880;DHT22;39791;53.184;5.486;2022-09-12T04:08:13;17.70;99.90
53880;DHT22;39791;53.184;5.486;2022-09-12T04:10:39;18.40;99.90
53880;DHT22;39791;53.184;5.486;2022-09-12T04:13:04;18.40;99.90
53880;DHT22;39791;53.184;5.486;2022-09-12T04:15:30;18.20;99.90
53880;DHT22;39791;53.184;5.486;2022-09-12T04:17:55;18.20;99.90
53880;DHT22;39791;53.184;5.486;2022-09-12T04:20:21;17.90;99.90
53880;DHT22;39791;53.184;5.486;2022-09-12T04:22:47;18.10;99.90
53880;DHT22;39791;53.184;5.486;2022-09-12T04:25:12;18.40;99.90
53880;DHT22;39791;53.184;5.486;2022-09-12T04:27:38;18.10;99.90
53880;DHT22;39791;53.184;5.486;2022-09-12T04:30:04;18.80;99.90
53880;DHT22;39791;53.184;5.486;2022-09-12T04:32:30;18.00;99.90
53880;DHT22;39791;53.184;5.486;2022-09-12T04:34:56;18.70;99.90
53880;DHT22;39791;53.184;5.486;2022-09-12T04:37:22;18.50;99.90
53880;DHT22;39791;53.184;5.486;2022-09-12T04:39:49;18.60;99.90
53880;DHT22;39791;53.184;5.486;2022-09-12T04:42:16;18.70;99.90
53880;DHT22;39791;53.184;5.486;2022-09-12T04:44:41;18.50;99.90
53880;DHT22;39791;53.184;5.486;2022-09-12T04:47:07;18.20;99.90
53880;DHT22;39791;53.184;5.486;2022-09-12T04:49:33;19.00;99.90
53880;DHT22;39791;53.184;5.486;2022-09-12T04:51:58;18.30;99.90
53880;DHT22;39791;53.184;5.486;2022-09-12T04:54:24;19.00;99.90
53880;DHT22;39791;53.184;5.486;2022-09-12T04:56:50;18.60;99.90
53880;DHT22;39791;53.184;5.486;2022-09-12T04:59:17;18.20;99.90
53880;DHT22;39791;53.184;5.486;2022-09-12T05:01:42;19.00;99.90
53880;DHT22;39791;53.184;5.486;2022-09-12T05:04:09;18.50;99.90
53880;DHT22;39791;53.184;5.486;2022-09-12T05:06:36;18.20;99.90
53880;DHT22;39791;53.184;5.486;2022-09-12T05:09:04;18.30;99.90
53880;DHT22;39791;53.184;5.486;2022-09-12T05:11:32;19.20;99.90
53880;DHT22;39791;53.184;5.486;2022-09-12T05:13:58;19.10;99.90
53880;DHT22;39791;53.184;5.486;2022-09-12T05:16:24;19.30;99.90
53880;DHT22;39791;53.184;5.486;2022-09-12T05:18:50;19.40;99.90
53880;DHT22;39791;53.184;5.486;2022-09-12T05:21:18;18.70;99.90
53880;DHT22;39791;53.184;5.486;2022-09-12T05:23:45;19.20;99.90
53880;DHT22;39791;53.184;5.486;2022-09-12T05:26:15;18.70;99.90
53880;DHT22;39791;53.184;5.486;2022-09-12T05:28:41;18.50;99.90
53880;DHT22;39791;53.184;5.486;2022-09-12T05:31:16;19.30;99.90
53880;DHT22;39791;53.184;5.486;2022-09-12T05:33:43;18.60;99.90
53880;DHT22;39791;53.184;5.486;2022-09-12T05:36:12;18.60;99.90
53880;DHT22;39791;53.184;5.486;2022-09-12T05:38:38;19.00;99.90
53880;DHT22;39791;53.184;5.486;2022-09-12T05:41:06;19.10;99.90
53880;DHT22;39791;53.184;5.486;2022-09-12T05:43:33;18.40;99.90
53880;DHT22;39791;53.184;5.486;2022-09-12T05:46:13;18.40;99.90
53880;DHT22;39791;53.184;5.486;2022-09-12T05:48:41;18.40;99.90
53880;DHT22;39791;53.184;5.486;2022-09-12T05:51:12;19.40;99.90
53880;DHT22;39791;53.184;5.486;2022-09-12T05:53:39;18.80;99.90
53880;DHT22;39791;53.184;5.486;2022-09-12T05:56:10;19.10;99.90
53880;DHT22;39791;53.184;5.486;2022-09-12T05:58:39;18.60;99.90
53880;DHT22;39791;53.184;5.486;2022-09-12T06:01:12;19.40;99.90
53880;DHT22;39791;53.184;5.486;2022-09-12T06:03:48;18.70;99.90
53880;DHT22;39791;53.184;5.486;2022-09-12T06:06:15;18.60;99.90
53880;DHT22;39791;53.184;5.486;2022-09-12T06:08:43;19.30;99.90
53880;DHT22;39791;53.184;5.486;2022-09-12T06:11:15;19.40;99.90
53880;DHT22;39791;53.184;5.486;2022-09-12T06:13:41;19.40;99.90
53880;DHT22;39791;53.184;5.486;2022-09-12T06:16:24;19.40;99.90
53880;DHT22;39791;53.184;5.486;2022-09-12T06:18:55;19.50;99.90
53880;DHT22;39791;53.184;5.486;2022-09-12T06:21:22;19.20;99.90
53880;DHT22;39791;53.184;5.486;2022-09-12T06:23:48;19.60;99.90
53880;DHT22;39791;53.184;5.486;2022-09-12T06:26:15;19.50;99.90
53880;DHT22;39791;53.184;5.486;2022-09-12T06:28:43;19.60;99.90
53880;DHT22;39791;53.184;5.486;2022-09-12T06:31:25;18.80;99.90
53880;DHT22;39791;53.184;5.486;2022-09-12T06:33:53;19.00;99.90
53880;DHT22;39791;53.184;5.486;2022-09-12T06:36:27;19.20;99.90
53880;DHT22;39791;53.184;5.486;2022-09-12T06:38:55;19.60;99.90
53880;DHT22;39791;53.184;5.486;2022-09-12T06:41:22;18.90;99.90
53880;DHT22;39791;53.184;5.486;2022-09-12T06:43:48;19.20;99.90
53880;DHT22;39791;53.184;5.486;2022-09-12T06:46:14;19.70;99.90
53880;DHT22;39791;53.184;5.486;2022-09-12T06:48:40;19.00;99.90
53880;DHT22;39791;53.184;5.486;2022-09-12T06:51:09;19.00;99.90
53880;DHT22;39791;53.184;5.486;2022-09-12T06:53:35;19.10;99.90
53880;DHT22;39791;53.184;5.486;2022-09-12T06:56:07;19.80;99.90
53880;DHT22;39791;53.184;5.486;2022-09-12T06:58:34;20.00;99.90
53880;DHT22;39791;53.184;5.486;2022-09-12T07:01:21;19.60;99.90
53880;DHT22;39791;53.184;5.486;2022-09-12T07:03:50;19.30;99.90
53880;DHT22;39791;53.184;5.486;2022-09-12T07:06:17;20.30;99.90
53880;DHT22;39791;53.184;5.486;2022-09-12T07:08:43;19.90;99.90
53880;DHT22;39791;53.184;5.486;2022-09-12T07:11:20;20.30;99.90
53880;DHT22;39791;53.184;5.486;2022-09-12T07:13:52;19.90;99.90
53880;DHT22;39791;53.184;5.486;2022-09-12T07:16:18;19.80;99.90
53880;DHT22;39791;53.184;5.486;2022-09-12T07:18:48;19.80;99.90
53880;DHT22;39791;53.184;5.486;2022-09-12T07:21:14;20.00;99.90
53880;DHT22;39791;53.184;5.486;2022-09-12T07:23:40;20.10;99.90
53880;DHT22;39791;53.184;5.486;2022-09-12T07:26:09;20.10;99.90
53880;DHT22;39791;53.184;5.486;2022-09-12T07:28:35;20.80;99.90
53880;DHT22;39791;53.184;5.486;2022-09-12T07:31:11;20.90;99.90
53880;DHT22;39791;53.184;5.486;2022-09-12T07:33:38;20.60;99.90
53880;DHT22;39791;53.184;5.486;2022-09-12T07:36:10;21.00;99.90
53880;DHT22;39791;53.184;5.486;2022-09-12T07:38:37;20.80;99.90
53880;DHT22;39791;53.184;5.486;2022-09-12T07:41:30;20.60;99.90
53880;DHT22;39791;53.184;5.486;2022-09-12T07:43:58;21.30;99.90
53880;DHT22;39791;53.184;5.486;2022-09-12T07:46:24;21.40;99.90
53880;DHT22;39791;53.184;5.486;2022-09-12T07:48:55;21.20;99.90
53880;DHT22;39791;53.184;5.486;2022-09-12T07:51:23;21.00;99.90
53880;DHT22;39791;53.184;5.486;2022-09-12T07:53:49;21.60;99.90
53880;DHT22;39791;53.184;5.486;2022-09-12T07:56:16;21.30;99.90
53880;DHT22;39791;53.184;5.486;2022-09-12T07:58:42;21.10;99.90
53880;DHT22;39791;53.184;5.486;2022-09-12T08:01:13;21.70;99.90
53880;DHT22;39791;53.184;5.486;2022-09-12T08:03:40;21.50;99.90
53880;DHT22;39791;53.184;5.486;2022-09-12T08:06:12;21.60;99.90
53880;DHT22;39791;53.184;5.486;2022-09-12T08:08:39;21.50;99.90
53880;DHT22;39791;53.184;5.486;2022-09-12T08:11:07;21.50;99.90
53880;DHT22;39791;53.184;5.486;2022-09-12T08:13:35;21.40;99.90
53880;DHT22;39791;53.184;5.486;2022-09-12T08:16:06;21.70;99.90
53880;DHT22;39791;53.184;5.486;2022-09-12T08:18:34;21.70;99.90
53880;DHT22;39791;53.184;5.486;2022-09-12T08:21:03;21.90;99.90
53880;DHT22;39791;53.184;5.486;2022-09-12T08:23:29;21.80;99.90
53880;DHT22;39791;53.184;5.486;2022-09-12T08:25:59;22.00;99.90
53880;DHT22;39791;53.184;5.486;2022-09-12T08:28:26;21.80;99.90
53880;DHT22;39791;53.184;5.486;2022-09-12T08:31:03;22.20;99.90
53880;DHT22;39791;53.184;5.486;2022-09-12T08:33:30;22.00;99.90
53880;DHT22;39791;53.184;5.486;2022-09-12T08:36:04;22.00;99.90
53880;DHT22;39791;53.184;5.486;2022-09-12T08:38:31;22.20;99.90
53880;DHT22;39791;53.184;5.486;2022-09-12T08:46:10;22.30;99.90
53880;DHT22;39791;53.184;5.486;2022-09-12T08:48:38;22.80;99.90
53880;DHT22;39791;53.184;5.486;2022-09-12T08:51:09;23.00;99.90
53880;DHT22;39791;53.184;5.486;2022-09-12T08:53:36;23.20;99.90
53880;DHT22;39791;53.184;5.486;2022-09-12T08:56:04;23.10;99.90
53880;DHT22;39791;53.184;5.486;2022-09-12T08:58:36;23.40;99.90
53880;DHT22;39791;53.184;5.486;2022-09-12T09:06:50;23.90;99.90
53880;DHT22;39791;53.184;5.486;2022-09-12T09:17:54;24.50;99.90
53880;DHT22;39791;53.184;5.486;2022-09-12T09:20:45;24.60;99.90
53880;DHT22;39791;53.184;5.486;2022-09-12T09:23:26;24.80;99.90
53880;DHT22;39791;53.184;5.486;2022-09-12T09:25:57;25.10;99.90
53880;DHT22;39791;53.184;5.486;2022-09-12T09:31:14;25.40;99.90
53880;DHT22;39791;53.184;5.486;2022-09-12T09:33:40;25.30;99.90
53880;DHT22;39791;53.184;5.486;2022-09-12T09:36:43;25.00;99.90
53880;DHT22;39791;53.184;5.486;2022-09-12T09:44:55;25.50;99.90
53880;DHT22;39791;53.184;5.486;2022-09-12T09:47:23;25.80;99.90
53880;DHT22;39791;53.184;5.486;2022-09-12T09:49:48;26.00;99.90
53880;DHT22;39791;53.184;5.486;2022-09-12T09:52:16;26.10;99.90
53880;DHT22;39791;53.184;5.486;2022-09-12T09:54:50;26.20;99.90
53880;DHT22;39791;53.184;5.486;2022-09-12T10:00:37;26.00;99.90
53880;DHT22;39791;53.184;5.486;2022-09-12T10:03:39;26.20;99.90
53880;DHT22;39791;53.184;5.486;2022-09-12T10:06:25;26.30;99.90
53880;DHT22;39791;53.184;5.486;2022-09-12T10:11:39;26.50;99.90
53880;DHT22;39791;53.184;5.486;2022-09-12T10:16:53;26.60;98.40
53880;DHT22;39791;53.184;5.486;2022-09-12T10:19:32;26.70;99.90
53880;DHT22;39791;53.184;5.486;2022-09-12T10:21:58;26.60;1.00
53880;DHT22;39791;53.184;5.486;2022-09-12T10:24:40;26.70;18.40
53880;DHT22;39791;53.184;5.486;2022-09-12T10:29:52;26.90;1.00
53880;DHT22;39791;53.184;5.486;2022-09-12T10:32:33;27.10;99.90
53880;DHT22;39791;53.184;5.486;2022-09-12T10:35:07;27.10;1.00
53880;DHT22;39791;53.184;5.486;2022-09-12T10:37:40;27.10;99.90
53880;DHT22;39791;53.184;5.486;2022-09-12T10:40:24;27.10;15.80
53880;DHT22;39791;53.184;5.486;2022-09-12T10:42:55;27.10;1.00
53880;DHT22;39791;53.184;5.486;2022-09-12T10:45:32;27.00;99.90
53880;DHT22;39791;53.184;5.486;2022-09-12T10:48:02;27.00;99.90
53880;DHT22;39791;53.184;5.486;2022-09-12T10:50:39;26.70;95.50
53880;DHT22;39791;53.184;5.486;2022-09-12T10:53:21;26.30;89.90
53880;DHT22;39791;53.184;5.486;2022-09-12T11:01:41;26.60;99.90
53880;DHT22;39791;53.184;5.486;2022-09-12T11:04:20;26.30;99.90
53880;DHT22;39791;53.184;5.486;2022-09-12T11:13:37;25.40;99.90
53880;DHT22;39791;53.184;5.486;2022-09-12T11:22:08;25.30;99.90
53880;DHT22;39791;53.184;5.486;2022-09-12T11:33:31;25.20;1.00
53880;DHT22;39791;53.184;5.486;2022-09-12T11:36:04;25.30;1.00
53880;DHT22;39791;53.184;5.486;2022-09-12T11:38:51;25.10;1.00
53880;DHT22;39791;53.184;5.486;2022-09-12T11:41:24;25.10;99.90
53880;DHT22;39791;53.184;5.486;2022-09-12T11:44:09;25.10;99.90
53880;DHT22;39791;53.184;5.486;2022-09-12T11:46:38;25.00;99.90
53880;DHT22;39791;53.184;5.486;2022-09-12T11:56:43;25.60;99.90
53880;DHT22;39791;53.184;5.486;2022-09-12T12:01:58;25.70;99.90
53880;DHT22;39791;53.184;5.486;2022-09-12T12:04:40;25.70;45.10
53880;DHT22;39791;53.184;5.486;2022-09-12T12:07:09;25.80;99.90
53880;DHT22;39791;53.184;5.486;2022-09-12T12:09:49;25.90;1.00
53880;DHT22;39791;53.184;5.486;2022-09-12T12:12:20;26.00;99.90
53880;DHT22;39791;53.184;5.486;2022-09-12T12:14:48;26.00;1.00
53880;DHT22;39791;53.184;5.486;2022-09-12T12:17:18;26.10;15.40
53880;DHT22;39791;53.184;5.486;2022-09-12T12:19:46;26.10;99.50
53880;DHT22;39791;53.184;5.486;2022-09-12T12:22:22;26.00;1.00
53880;DHT22;39791;53.184;5.486;2022-09-12T12:25:05;25.80;99.90
53880;DHT22;39791;53.184;5.486;2022-09-12T12:27:50;25.60;99.90
53880;DHT22;39791;53.184;5.486;2022-09-12T12:32:59;25.70;99.90
53880;DHT22;39791;53.184;5.486;2022-09-12T12:35:43;25.60;99.90
53880;DHT22;39791;53.184;5.486;2022-09-12T12:38:31;25.50;99.90
53880;DHT22;39791;53.184;5.486;2022-09-12T12:43:46;25.40;99.90
53880;DHT22;39791;53.184;5.486;2022-09-12T12:46:13;25.40;99.90
53880;DHT22;39791;53.184;5.486;2022-09-12T12:48:50;25.30;99.90
53880;DHT22;39791;53.184;5.486;2022-09-12T12:53:59;25.30;99.90
53880;DHT22;39791;53.184;5.486;2022-09-12T12:56:32;25.40;99.90
53880;DHT22;39791;53.184;5.486;2022-09-12T12:59:01;25.40;99.90
53880;DHT22;39791;53.184;5.486;2022-09-12T13:01:29;25.40;99.90
53880;DHT22;39791;53.184;5.486;2022-09-12T13:03:59;25.40;99.90
53880;DHT22;39791;53.184;5.486;2022-09-12T13:06:40;25.30;99.90
53880;DHT22;39791;53.184;5.486;2022-09-12T13:09:31;25.20;99.90
53880;DHT22;39791;53.184;5.486;2022-09-12T13:12:04;25.20;99.90
53880;DHT22;39791;53.184;5.486;2022-09-12T13:17:33;25.20;99.90
53880;DHT22;39791;53.184;5.486;2022-09-12T13:22:44;25.20;99.90
53880;DHT22;39791;53.184;5.486;2022-09-12T13:25:32;25.30;99.90
53880;DHT22;39791;53.184;5.486;2022-09-12T13:28:02;25.30;99.90
53880;DHT22;39791;53.184;5.486;2022-09-12T13:30:37;25.30;99.90
53880;DHT22;39791;53.184;5.486;2022-09-12T13:33:28;25.40;99.90
53880;DHT22;39791;53.184;5.486;2022-09-12T13:43:01;25.40;99.90
53880;DHT22;39791;53.184;5.486;2022-09-12T13:45:22;25.40;99.90
53880;DHT22;39791;53.184;5.486;2022-09-12T13:48:00;25.40;95.00
53880;DHT22;39791;53.184;5.486;2022-09-12T13:50:41;25.30;51.20
53880;DHT22;39791;53.184;5.486;2022-09-12T13:53:13;25.40;99.90
53880;DHT22;39791;53.184;5.486;2022-09-12T13:55:42;25.40;99.90
53880;DHT22;39791;53.184;5.486;2022-09-12T13:58:24;25.40;99.90
53880;DHT22;39791;53.184;5.486;2022-09-12T14:01:14;25.30;1.00
53880;DHT22;39791;53.184;5.486;2022-09-12T14:03:54;25.30;1.00
53880;DHT22;39791;53.184;5.486;2022-09-12T14:09:13;25.40;1.00
53880;DHT22;39791;53.184;5.486;2022-09-12T14:11:39;25.40;1.00
53880;DHT22;39791;53.184;5.486;2022-09-12T14:14:16;25.30;1.00
53880;DHT22;39791;53.184;5.486;2022-09-12T14:16:43;25.20;1.00
53880;DHT22;39791;53.184;5.486;2022-09-12T14:19:09;25.20;1.00
53880;DHT22;39791;53.184;5.486;2022-09-12T14:21:36;25.20;1.00
53880;DHT22;39791;53.184;5.486;2022-09-12T14:24:04;25.20;1.00
53880;DHT22;39791;53.184;5.486;2022-09-12T14:26:35;25.20;1.00
53880;DHT22;39791;53.184;5.486;2022-09-12T14:29:06;25.60;1.00
53880;DHT22;39791;53.184;5.486;2022-09-12T14:31:37;25.30;1.00
53880;DHT22;39791;53.184;5.486;2022-09-12T14:34:13;25.20;99.90
53880;DHT22;39791;53.184;5.486;2022-09-12T14:36:52;25.10;99.90
53880;DHT22;39791;53.184;5.486;2022-09-12T14:42:27;24.40;99.90
53880;DHT22;39791;53.184;5.486;2022-09-12T14:45:02;25.00;99.90
53880;DHT22;39791;53.184;5.486;2022-09-12T14:47:39;25.00;99.90
53880;DHT22;39791;53.184;5.486;2022-09-12T14:50:17;25.10;1.00
53880;DHT22;39791;53.184;5.486;2022-09-12T14:52:45;25.00;1.00
53880;DHT22;39791;53.184;5.486;2022-09-12T14:55:22;25.00;1.00
53880;DHT22;39791;53.184;5.486;2022-09-12T14:58:22;24.90;1.00
53880;DHT22;39791;53.184;5.486;2022-09-12T15:03:34;24.80;1.00
53880;DHT22;39791;53.184;5.486;2022-09-12T15:06:01;24.70;55.70
53880;DHT22;39791;53.184;5.486;2022-09-12T15:08:29;24.70;99.90
53880;DHT22;39791;53.184;5.486;2022-09-12T15:10:55;24.70;99.90
53880;DHT22;39791;53.184;5.486;2022-09-12T15:13:23;24.70;99.90
53880;DHT22;39791;53.184;5.486;2022-09-12T15:15:52;24.70;99.90
53880;DHT22;39791;53.184;5.486;2022-09-12T15:18:19;24.80;99.90
53880;DHT22;39791;53.184;5.486;2022-09-12T15:20:47;24.70;60.70
53880;DHT22;39791;53.184;5.486;2022-09-12T15:23:35;24.60;99.90
53880;DHT22;39791;53.184;5.486;2022-09-12T15:26:03;24.60;99.90
53880;DHT22;39791;53.184;5.486;2022-09-12T15:28:30;24.50;99.90
53880;DHT22;39791;53.184;5.486;2022-09-12T15:30:56;24.50;99.90
53880;DHT22;39791;53.184;5.486;2022-09-12T15:33:24;24.40;99.90
53880;DHT22;39791;53.184;5.486;2022-09-12T15:35:50;24.30;99.90
53880;DHT22;39791;53.184;5.486;2022-09-12T15:38:17;24.30;99.90
53880;DHT22;39791;53.184;5.486;2022-09-12T15:40:43;24.20;1.00
53880;DHT22;39791;53.184;5.486;2022-09-12T15:43:13;24.10;99.90
53880;DHT22;39791;53.184;5.486;2022-09-12T15:45:41;24.10;1.00
53880;DHT22;39791;53.184;5.486;2022-09-12T15:48:07;24.10;1.00
53880;DHT22;39791;53.184;5.486;2022-09-12T15:50:34;24.00;1.00
53880;DHT22;39791;53.184;5.486;2022-09-12T15:52:59;24.10;20.50
53880;DHT22;39791;53.184;5.486;2022-09-12T15:55:28;23.90;79.90
53880;DHT22;39791;53.184;5.486;2022-09-12T15:57:54;24.20;1.00
53880;DHT22;39791;53.184;5.486;2022-09-12T16:00:20;24.10;99.90
53880;DHT22;39791;53.184;5.486;2022-09-12T16:02:48;24.20;99.90
53880;DHT22;39791;53.184;5.486;2022-09-12T16:05:17;24.10;45.60
53880;DHT22;39791;53.184;5.486;2022-09-12T16:07:43;24.00;99.90
53880;DHT22;39791;53.184;5.486;2022-09-12T16:10:20;23.90;99.90
53880;DHT22;39791;53.184;5.486;2022-09-12T16:12:46;24.00;1.00
53880;DHT22;39791;53.184;5.486;2022-09-12T16:15:14;23.80;1.00
53880;DHT22;39791;53.184;5.486;2022-09-12T16:17:40;24.00;1.00
53880;DHT22;39791;53.184;5.486;2022-09-12T16:20:07;23.60;1.00
53880;DHT22;39791;53.184;5.486;2022-09-12T16:22:32;23.70;1.00
53880;DHT22;39791;53.184;5.486;2022-09-12T16:24:58;23.60;1.00
53880;DHT22;39791;53.184;5.486;2022-09-12T16:27:24;23.60;1.00
53880;DHT22;39791;53.184;5.486;2022-09-12T16:29:49;23.50;1.00
53880;DHT22;39791;53.184;5.486;2022-09-12T16:32:16;23.50;1.00
53880;DHT22;39791;53.184;5.486;2022-09-12T16:34:42;23.40;1.00
53880;DHT22;39791;53.184;5.486;2022-09-12T16:37:07;23.40;1.00
53880;DHT22;39791;53.184;5.486;2022-09-12T16:39:33;23.30;28.70
53880;DHT22;39791;53.184;5.486;2022-09-12T16:41:59;23.30;99.90
53880;DHT22;39791;53.184;5.486;2022-09-12T16:44:24;23.20;99.90
53880;DHT22;39791;53.184;5.486;2022-09-12T16:46:50;23.00;99.90
53880;DHT22;39791;53.184;5.486;2022-09-12T16:49:16;23.00;1.00
53880;DHT22;39791;53.184;5.486;2022-09-12T16:51:41;23.00;99.90
53880;DHT22;39791;53.184;5.486;2022-09-12T16:54:15;22.90;1.00
53880;DHT22;39791;53.184;5.486;2022-09-12T16:56:42;22.80;66.70
53880;DHT22;39791;53.184;5.486;2022-09-12T16:59:08;22.80;99.90
53880;DHT22;39791;53.184;5.486;2022-09-12T17:01:37;22.80;1.00
53880;DHT22;39791;53.184;5.486;2022-09-12T17:04:02;22.80;99.90
53880;DHT22;39791;53.184;5.486;2022-09-12T17:06:28;22.80;1.00
53880;DHT22;39791;53.184;5.486;2022-09-12T17:08:57;22.80;99.90
53880;DHT22;39791;53.184;5.486;2022-09-12T17:11:28;22.70;1.00
53880;DHT22;39791;53.184;5.486;2022-09-12T17:13:57;22.70;99.90
53880;DHT22;39791;53.184;5.486;2022-09-12T17:16:24;22.60;99.90
53880;DHT22;39791;53.184;5.486;2022-09-12T17:18:50;22.60;1.00
53880;DHT22;39791;53.184;5.486;2022-09-12T17:21:16;22.70;99.90
53880;DHT22;39791;53.184;5.486;2022-09-12T17:23:42;22.60;99.90
53880;DHT22;39791;53.184;5.486;2022-09-12T17:26:09;22.60;1.00
53880;DHT22;39791;53.184;5.486;2022-09-12T17:28:36;22.60;21.70
53880;DHT22;39791;53.184;5.486;2022-09-12T17:31:05;22.60;99.90
53880;DHT22;39791;53.184;5.486;2022-09-12T17:33:31;22.60;99.90
53880;DHT22;39791;53.184;5.486;2022-09-12T17:36:11;22.60;99.90
53880;DHT22;39791;53.184;5.486;2022-09-12T17:38:39;22.60;99.90
53880;DHT22;39791;53.184;5.486;2022-09-12T17:41:12;22.60;99.90
53880;DHT22;39791;53.184;5.486;2022-09-12T17:43:45;22.60;99.90
53880;DHT22;39791;53.184;5.486;2022-09-12T17:46:12;22.50;99.90
53880;DHT22;39791;53.184;5.486;2022-09-12T17:48:37;22.50;99.90
53880;DHT22;39791;53.184;5.486;2022-09-12T17:51:13;22.50;99.90
53880;DHT22;39791;53.184;5.486;2022-09-12T17:53:42;22.50;99.90
53880;DHT22;39791;53.184;5.486;2022-09-12T17:56:09;22.50;99.90
53880;DHT22;39791;53.184;5.486;2022-09-12T17:58:35;22.40;99.90
53880;DHT22;39791;53.184;5.486;2022-09-12T18:01:05;22.50;99.90
53880;DHT22;39791;53.184;5.486;2022-09-12T18:03:52;22.40;99.90
53880;DHT22;39791;53.184;5.486;2022-09-12T18:06:20;22.30;99.90
53880;DHT22;39791;53.184;5.486;2022-09-12T18:08:45;22.30;99.90
53880;DHT22;39791;53.184;5.486;2022-09-12T18:11:11;22.40;99.90
53880;DHT22;39791;53.184;5.486;2022-09-12T18:13:37;22.30;99.90